Terminal Aerodrome Forecast
Issued by NWS Grand Forks, ND

Home | Current Version | Previous Version | Text Only | Print | Product List | Glossary Off
Versions: 1 2 3 4 5 6 7 8 9 10 11 12 13 14 15 16 17 18

639
FTUS43 KFGF 201720
TAFFAR
TAF
KFAR 201720Z 2018/2118 32018KT 2SM -SN BLSN BKN015
     FM202200 30011KT P6SM BKN035
     FM210300 24007KT P6SM FEW150=

USA.gov is the U.S. government's official web portal to all federal, state and local government web resources and services.